SBOSBO MAH / LEMH
Speedbird OnlineSpeedbird Online MAH / LEMH

Menorca Airport
02:34 20°C

Location Menorca, Spain
Latitude: 39.86259841918945
Longitude: 4.218649864196777
Local Time 02:34 on 22 Jun 2024
UTC +2 hours (Europe/Madrid)
Currency £1 equals EUR 1.18
METAR LEMH 220000Z AUTO 09003KT CAVOK 20/19 Q1021
TAF TAF LEMH 212000Z 2121/2221 05007KT 9999 FEW020 TX26/2212Z TN18/2205Z BECMG 2122/2124 VRB04KT BECMG 2208/2210 22009KT BECMG 2218/2220 VRB04KT
Weather As Of 22 Jun 2024 02:34
Description Clear sky
Wind 6 km/h from East (90°)
Cloud Cover 0%
Precipitation Rain: none, Snow: none
Sunrise 06:15
Sunset 21:15
NOTAM 8 active NOTAM
Rotations During the last 90 days there were
23 flights from LGW
23 flights to LGW
Lounges Tramuntana Lounge, Main terminal
Web Airport Website | Wikipedia
Codes IATA: MAH
ICAO: LEMH
Altitude 92 Meter / 302 Feet
Distance 1,333 KM / 828 Miles
from London.
Runways
RunwayLength (m)Surface
012550Asphalt
01L2350Asphalt
01R2100Asphalt
19L2100Asphalt
19R2350Asphalt
192550Asphalt
Radio
TypeDescriptionFrequency
APPAPP119.65
ATISATIS112.6
GNDGND121.75
TWRTWR118.2
Live ATC



Support Speedbird Online

© 2017-2024 Speedbird Online